sensor_id;sensor_type;location;lat;lon;timestamp;P1;durP1;ratioP1;P2;durP2;ratioP2
52554;SDS011;38455;52.710;6.502;2023-06-14T00:00:38;6.80;;;2.17;;
52554;SDS011;38455;52.710;6.502;2023-06-14T00:03:09;3.63;;;1.80;;
52554;SDS011;38455;52.710;6.502;2023-06-14T00:05:36;10.00;;;2.53;;
52554;SDS011;38455;52.710;6.502;2023-06-14T00:08:06;4.75;;;2.05;;
52554;SDS011;38455;52.710;6.502;2023-06-14T00:10:36;7.38;;;2.40;;
52554;SDS011;38455;52.710;6.502;2023-06-14T00:13:03;9.00;;;2.38;;
52554;SDS011;38455;52.710;6.502;2023-06-14T00:15:30;6.03;;;2.00;;
52554;SDS011;38455;52.710;6.502;2023-06-14T00:17:56;6.70;;;2.55;;
52554;SDS011;38455;52.710;6.502;2023-06-14T00:20:25;5.72;;;2.20;;
52554;SDS011;38455;52.710;6.502;2023-06-14T00:23:01;6.55;;;2.42;;
52554;SDS011;38455;52.710;6.502;2023-06-14T00:25:27;6.30;;;2.08;;
52554;SDS011;38455;52.710;6.502;2023-06-14T00:27:54;5.10;;;2.20;;
52554;SDS011;38455;52.710;6.502;2023-06-14T00:30:20;10.50;;;2.75;;
52554;SDS011;38455;52.710;6.502;2023-06-14T00:32:46;9.63;;;2.42;;
52554;SDS011;38455;52.710;6.502;2023-06-14T00:35:12;6.82;;;2.55;;
52554;SDS011;38455;52.710;6.502;2023-06-14T00:37:38;9.63;;;2.33;;
52554;SDS011;38455;52.710;6.502;2023-06-14T00:40:04;10.52;;;2.47;;
52554;SDS011;38455;52.710;6.502;2023-06-14T00:42:31;9.52;;;2.15;;
52554;SDS011;38455;52.710;6.502;2023-06-14T00:44:57;11.80;;;2.03;;
52554;SDS011;38455;52.710;6.502;2023-06-14T00:47:23;3.60;;;2.33;;
52554;SDS011;38455;52.710;6.502;2023-06-14T00:49:50;4.78;;;2.10;;
52554;SDS011;38455;52.710;6.502;2023-06-14T00:52:16;5.35;;;2.20;;
52554;SDS011;38455;52.710;6.502;2023-06-14T00:54:43;6.38;;;2.38;;
52554;SDS011;38455;52.710;6.502;2023-06-14T00:57:09;6.03;;;2.17;;
52554;SDS011;38455;52.710;6.502;2023-06-14T00:59:42;7.05;;;2.13;;
52554;SDS011;38455;52.710;6.502;2023-06-14T01:02:09;10.00;;;2.53;;
52554;SDS011;38455;52.710;6.502;2023-06-14T01:04:35;4.57;;;2.22;;
52554;SDS011;38455;52.710;6.502;2023-06-14T01:07:04;4.78;;;2.03;;
52554;SDS011;38455;52.710;6.502;2023-06-14T01:12:46;6.03;;;2.17;;
52554;SDS011;38455;52.710;6.502;2023-06-14T01:15:17;7.88;;;2.28;;
52554;SDS011;38455;52.710;6.502;2023-06-14T01:17:45;6.43;;;2.00;;
52554;SDS011;38455;52.710;6.502;2023-06-14T01:20:14;6.80;;;2.22;;
52554;SDS011;38455;52.710;6.502;2023-06-14T01:22:51;7.53;;;2.15;;
52554;SDS011;38455;52.710;6.502;2023-06-14T01:25:19;8.30;;;2.67;;
52554;SDS011;38455;52.710;6.502;2023-06-14T01:27:57;7.97;;;2.15;;
52554;SDS011;38455;52.710;6.502;2023-06-14T01:30:28;4.97;;;2.08;;
52554;SDS011;38455;52.710;6.502;2023-06-14T01:32:55;5.85;;;2.00;;
52554;SDS011;38455;52.710;6.502;2023-06-14T01:35:21;5.22;;;1.90;;
52554;SDS011;38455;52.710;6.502;2023-06-14T01:37:47;8.23;;;2.65;;
52554;SDS011;38455;52.710;6.502;2023-06-14T01:40:14;10.75;;;2.30;;
52554;SDS011;38455;52.710;6.502;2023-06-14T01:42:41;4.82;;;2.05;;
52554;SDS011;38455;52.710;6.502;2023-06-14T01:45:09;18.70;;;2.75;;
52554;SDS011;38455;52.710;6.502;2023-06-14T01:47:36;7.00;;;2.30;;
52554;SDS011;38455;52.710;6.502;2023-06-14T01:50:05;7.78;;;2.22;;
52554;SDS011;38455;52.710;6.502;2023-06-14T01:52:31;5.43;;;2.03;;
52554;SDS011;38455;52.710;6.502;2023-06-14T01:54:56;10.45;;;2.35;;
52554;SDS011;38455;52.710;6.502;2023-06-14T01:57:23;6.32;;;2.22;;
52554;SDS011;38455;52.710;6.502;2023-06-14T01:59:51;3.70;;;2.35;;
52554;SDS011;38455;52.710;6.502;2023-06-14T02:02:17;7.53;;;2.35;;
52554;SDS011;38455;52.710;6.502;2023-06-14T02:04:43;7.55;;;2.10;;
52554;SDS011;38455;52.710;6.502;2023-06-14T02:07:09;8.48;;;2.25;;
52554;SDS011;38455;52.710;6.502;2023-06-14T02:09:34;6.03;;;2.00;;
52554;SDS011;38455;52.710;6.502;2023-06-14T02:12:01;7.05;;;2.25;;
52554;SDS011;38455;52.710;6.502;2023-06-14T02:14:26;17.42;;;2.55;;
52554;SDS011;38455;52.710;6.502;2023-06-14T02:16:53;6.38;;;2.33;;
52554;SDS011;38455;52.710;6.502;2023-06-14T02:19:18;4.72;;;2.25;;
52554;SDS011;38455;52.710;6.502;2023-06-14T02:21:45;6.63;;;2.25;;
52554;SDS011;38455;52.710;6.502;2023-06-14T02:24:12;7.85;;;2.25;;
52554;SDS011;38455;52.710;6.502;2023-06-14T02:26:38;8.77;;;2.55;;
52554;SDS011;38455;52.710;6.502;2023-06-14T02:29:05;5.25;;;2.17;;
52554;SDS011;38455;52.710;6.502;2023-06-14T02:31:31;6.15;;;2.55;;
52554;SDS011;38455;52.710;6.502;2023-06-14T02:33:57;6.28;;;2.55;;
52554;SDS011;38455;52.710;6.502;2023-06-14T02:36:23;10.13;;;2.33;;
52554;SDS011;38455;52.710;6.502;2023-06-14T02:38:49;8.18;;;2.10;;
52554;SDS011;38455;52.710;6.502;2023-06-14T02:41:14;5.57;;;2.35;;
52554;SDS011;38455;52.710;6.502;2023-06-14T02:43:40;4.78;;;2.03;;
52554;SDS011;38455;52.710;6.502;2023-06-14T02:46:06;5.50;;;2.00;;
52554;SDS011;38455;52.710;6.502;2023-06-14T02:48:32;6.53;;;2.75;;
52554;SDS011;38455;52.710;6.502;2023-06-14T02:50:58;6.88;;;3.03;;
52554;SDS011;38455;52.710;6.502;2023-06-14T02:53:23;4.35;;;2.15;;
52554;SDS011;38455;52.710;6.502;2023-06-14T02:55:49;3.50;;;2.45;;
52554;SDS011;38455;52.710;6.502;2023-06-14T02:58:14;5.68;;;2.63;;
52554;SDS011;38455;52.710;6.502;2023-06-14T03:00:41;5.88;;;2.80;;
52554;SDS011;38455;52.710;6.502;2023-06-14T03:03:07;9.23;;;2.65;;
52554;SDS011;38455;52.710;6.502;2023-06-14T03:05:40;5.35;;;2.45;;
52554;SDS011;38455;52.710;6.502;2023-06-14T03:08:14;8.07;;;2.60;;
52554;SDS011;38455;52.710;6.502;2023-06-14T03:10:48;6.68;;;2.50;;
52554;SDS011;38455;52.710;6.502;2023-06-14T03:13:17;9.93;;;2.60;;
52554;SDS011;38455;52.710;6.502;2023-06-14T03:15:46;3.47;;;2.42;;
52554;SDS011;38455;52.710;6.502;2023-06-14T03:18:12;5.10;;;2.38;;
52554;SDS011;38455;52.710;6.502;2023-06-14T03:20:40;7.82;;;2.28;;
52554;SDS011;38455;52.710;6.502;2023-06-14T03:23:06;6.70;;;2.38;;
52554;SDS011;38455;52.710;6.502;2023-06-14T03:25:32;7.35;;;2.83;;
52554;SDS011;38455;52.710;6.502;2023-06-14T03:28:00;7.10;;;2.47;;
52554;SDS011;38455;52.710;6.502;2023-06-14T03:30:26;14.00;;;3.08;;
52554;SDS011;38455;52.710;6.502;2023-06-14T03:32:52;5.65;;;2.53;;
52554;SDS011;38455;52.710;6.502;2023-06-14T03:35:18;10.50;;;3.95;;
52554;SDS011;38455;52.710;6.502;2023-06-14T03:37:44;3.78;;;2.28;;
52554;SDS011;38455;52.710;6.502;2023-06-14T03:40:11;4.90;;;2.53;;
52554;SDS011;38455;52.710;6.502;2023-06-14T03:42:38;4.30;;;2.45;;
52554;SDS011;38455;52.710;6.502;2023-06-14T03:45:04;4.72;;;2.53;;
52554;SDS011;38455;52.710;6.502;2023-06-14T03:47:31;6.95;;;3.40;;
52554;SDS011;38455;52.710;6.502;2023-06-14T03:49:57;10.05;;;2.58;;
52554;SDS011;38455;52.710;6.502;2023-06-14T03:52:22;5.30;;;2.40;;
52554;SDS011;38455;52.710;6.502;2023-06-14T03:54:49;9.30;;;2.58;;
52554;SDS011;38455;52.710;6.502;2023-06-14T03:57:15;7.28;;;3.03;;
52554;SDS011;38455;52.710;6.502;2023-06-14T03:59:40;7.38;;;2.90;;
52554;SDS011;38455;52.710;6.502;2023-06-14T04:02:06;6.07;;;2.20;;
52554;SDS011;38455;52.710;6.502;2023-06-14T04:04:34;4.25;;;2.63;;
52554;SDS011;38455;52.710;6.502;2023-06-14T04:07:00;8.52;;;3.22;;
52554;SDS011;38455;52.710;6.502;2023-06-14T04:09:28;4.68;;;2.78;;
52554;SDS011;38455;52.710;6.502;2023-06-14T04:11:54;7.55;;;2.63;;
52554;SDS011;38455;52.710;6.502;2023-06-14T04:14:21;7.45;;;3.03;;
52554;SDS011;38455;52.710;6.502;2023-06-14T04:16:47;6.63;;;3.08;;
52554;SDS011;38455;52.710;6.502;2023-06-14T04:19:14;6.35;;;2.80;;
52554;SDS011;38455;52.710;6.502;2023-06-14T04:21:40;9.40;;;2.85;;
52554;SDS011;38455;52.710;6.502;2023-06-14T04:24:06;8.57;;;3.05;;
52554;SDS011;38455;52.710;6.502;2023-06-14T04:26:32;6.68;;;3.33;;
52554;SDS011;38455;52.710;6.502;2023-06-14T04:28:59;5.75;;;3.03;;
52554;SDS011;38455;52.710;6.502;2023-06-14T04:31:30;4.93;;;2.38;;
52554;SDS011;38455;52.710;6.502;2023-06-14T04:33:59;6.45;;;3.03;;
52554;SDS011;38455;52.710;6.502;2023-06-14T04:36:25;8.18;;;3.13;;
52554;SDS011;38455;52.710;6.502;2023-06-14T04:38:53;7.50;;;3.08;;
52554;SDS011;38455;52.710;6.502;2023-06-14T04:41:22;12.27;;;2.70;;
52554;SDS011;38455;52.710;6.502;2023-06-14T04:43:53;9.35;;;2.95;;
52554;SDS011;38455;52.710;6.502;2023-06-14T04:46:19;6.13;;;2.85;;
52554;SDS011;38455;52.710;6.502;2023-06-14T04:48:45;6.35;;;3.05;;
52554;SDS011;38455;52.710;6.502;2023-06-14T04:51:12;9.82;;;2.80;;
52554;SDS011;38455;52.710;6.502;2023-06-14T04:53:38;8.93;;;2.90;;
52554;SDS011;38455;52.710;6.502;2023-06-14T04:56:04;4.93;;;2.60;;
52554;SDS011;38455;52.710;6.502;2023-06-14T04:58:29;4.75;;;2.60;;
52554;SDS011;38455;52.710;6.502;2023-06-14T05:00:55;6.53;;;2.53;;
52554;SDS011;38455;52.710;6.502;2023-06-14T05:03:21;5.78;;;2.25;;
52554;SDS011;38455;52.710;6.502;2023-06-14T05:05:49;5.53;;;2.72;;
52554;SDS011;38455;52.710;6.502;2023-06-14T05:08:15;5.13;;;2.58;;
52554;SDS011;38455;52.710;6.502;2023-06-14T05:10:41;6.78;;;2.78;;
52554;SDS011;38455;52.710;6.502;2023-06-14T05:13:07;4.10;;;2.78;;
52554;SDS011;38455;52.710;6.502;2023-06-14T05:15:32;6.78;;;2.90;;
52554;SDS011;38455;52.710;6.502;2023-06-14T05:17:59;3.95;;;2.60;;
52554;SDS011;38455;52.710;6.502;2023-06-14T05:20:24;6.60;;;3.10;;
52554;SDS011;38455;52.710;6.502;2023-06-14T05:22:54;7.43;;;2.95;;
52554;SDS011;38455;52.710;6.502;2023-06-14T05:25:21;7.78;;;2.78;;
52554;SDS011;38455;52.710;6.502;2023-06-14T05:27:47;6.57;;;2.53;;
52554;SDS011;38455;52.710;6.502;2023-06-14T05:30:14;8.00;;;3.00;;
52554;SDS011;38455;52.710;6.502;2023-06-14T05:32:40;5.85;;;2.60;;
52554;SDS011;38455;52.710;6.502;2023-06-14T05:35:06;5.38;;;2.65;;
52554;SDS011;38455;52.710;6.502;2023-06-14T05:37:32;5.85;;;3.22;;
52554;SDS011;38455;52.710;6.502;2023-06-14T05:39:58;6.68;;;2.97;;
52554;SDS011;38455;52.710;6.502;2023-06-14T05:42:23;6.18;;;2.70;;
52554;SDS011;38455;52.710;6.502;2023-06-14T05:44:49;6.30;;;2.50;;
52554;SDS011;38455;52.710;6.502;2023-06-14T05:47:15;9.70;;;2.88;;
52554;SDS011;38455;52.710;6.502;2023-06-14T05:49:41;4.55;;;2.65;;
52554;SDS011;38455;52.710;6.502;2023-06-14T05:52:07;5.13;;;2.70;;
52554;SDS011;38455;52.710;6.502;2023-06-14T05:54:33;8.20;;;3.00;;
52554;SDS011;38455;52.710;6.502;2023-06-14T05:56:59;5.28;;;2.58;;
52554;SDS011;38455;52.710;6.502;2023-06-14T05:59:26;4.97;;;2.90;;
52554;SDS011;38455;52.710;6.502;2023-06-14T06:01:52;6.00;;;3.03;;
52554;SDS011;38455;52.710;6.502;2023-06-14T06:04:18;7.68;;;2.97;;
52554;SDS011;38455;52.710;6.502;2023-06-14T06:06:44;6.40;;;2.97;;
52554;SDS011;38455;52.710;6.502;2023-06-14T06:09:10;5.80;;;3.38;;
52554;SDS011;38455;52.710;6.502;2023-06-14T06:11:36;11.80;;;3.30;;
52554;SDS011;38455;52.710;6.502;2023-06-14T06:14:01;8.65;;;3.10;;
52554;SDS011;38455;52.710;6.502;2023-06-14T06:16:27;7.82;;;3.25;;
52554;SDS011;38455;52.710;6.502;2023-06-14T06:18:52;7.07;;;3.25;;
52554;SDS011;38455;52.710;6.502;2023-06-14T06:21:18;7.85;;;3.13;;
52554;SDS011;38455;52.710;6.502;2023-06-14T06:23:44;8.43;;;3.25;;
52554;SDS011;38455;52.710;6.502;2023-06-14T06:26:09;5.35;;;3.10;;
52554;SDS011;38455;52.710;6.502;2023-06-14T06:28:35;4.88;;;2.70;;
52554;SDS011;38455;52.710;6.502;2023-06-14T06:31:00;10.30;;;2.92;;
52554;SDS011;38455;52.710;6.502;2023-06-14T06:33:26;6.47;;;2.78;;
52554;SDS011;38455;52.710;6.502;2023-06-14T06:35:52;6.32;;;2.22;;
52554;SDS011;38455;52.710;6.502;2023-06-14T06:38:17;7.10;;;2.13;;
52554;SDS011;38455;52.710;6.502;2023-06-14T06:40:44;8.55;;;2.13;;
52554;SDS011;38455;52.710;6.502;2023-06-14T06:43:09;4.40;;;2.08;;
52554;SDS011;38455;52.710;6.502;2023-06-14T06:45:38;7.13;;;2.17;;
52554;SDS011;38455;52.710;6.502;2023-06-14T06:48:04;6.07;;;1.80;;
52554;SDS011;38455;52.710;6.502;2023-06-14T06:50:30;4.30;;;2.00;;
52554;SDS011;38455;52.710;6.502;2023-06-14T06:52:56;4.13;;;2.05;;
52554;SDS011;38455;52.710;6.502;2023-06-14T06:55:22;6.57;;;1.70;;
52554;SDS011;38455;52.710;6.502;2023-06-14T06:57:48;4.38;;;1.67;;
52554;SDS011;38455;52.710;6.502;2023-06-14T07:00:15;5.35;;;1.65;;
52554;SDS011;38455;52.710;6.502;2023-06-14T07:02:42;4.75;;;1.42;;
52554;SDS011;38455;52.710;6.502;2023-06-14T07:05:08;5.15;;;1.90;;
52554;SDS011;38455;52.710;6.502;2023-06-14T07:07:34;4.18;;;1.63;;
52554;SDS011;38455;52.710;6.502;2023-06-14T07:09:59;7.03;;;2.45;;
52554;SDS011;38455;52.710;6.502;2023-06-14T07:12:25;2.70;;;1.60;;
52554;SDS011;38455;52.710;6.502;2023-06-14T07:14:51;5.60;;;1.75;;
52554;SDS011;38455;52.710;6.502;2023-06-14T07:17:17;4.60;;;1.67;;
52554;SDS011;38455;52.710;6.502;2023-06-14T07:19:42;3.45;;;1.98;;
52554;SDS011;38455;52.710;6.502;2023-06-14T07:22:08;5.60;;;1.77;;
52554;SDS011;38455;52.710;6.502;2023-06-14T07:24:33;5.20;;;1.92;;
52554;SDS011;38455;52.710;6.502;2023-06-14T07:27:01;8.15;;;1.85;;
52554;SDS011;38455;52.710;6.502;2023-06-14T07:29:28;8.15;;;1.85;;
52554;SDS011;38455;52.710;6.502;2023-06-14T07:31:53;2.85;;;1.55;;
52554;SDS011;38455;52.710;6.502;2023-06-14T07:34:19;3.17;;;1.52;;
52554;SDS011;38455;52.710;6.502;2023-06-14T07:36:45;3.53;;;1.85;;
52554;SDS011;38455;52.710;6.502;2023-06-14T07:39:11;5.53;;;1.60;;
52554;SDS011;38455;52.710;6.502;2023-06-14T07:41:37;5.90;;;1.98;;
52554;SDS011;38455;52.710;6.502;2023-06-14T07:44:02;4.78;;;2.10;;
52554;SDS011;38455;52.710;6.502;2023-06-14T07:46:28;5.28;;;1.83;;
52554;SDS011;38455;52.710;6.502;2023-06-14T07:48:55;5.70;;;1.80;;
52554;SDS011;38455;52.710;6.502;2023-06-14T07:51:20;8.88;;;2.42;;
52554;SDS011;38455;52.710;6.502;2023-06-14T07:53:48;5.70;;;1.80;;
52554;SDS011;38455;52.710;6.502;2023-06-14T07:56:13;2.97;;;1.50;;
52554;SDS011;38455;52.710;6.502;2023-06-14T07:58:39;3.72;;;1.60;;
52554;SDS011;38455;52.710;6.502;2023-06-14T08:01:05;6.25;;;1.83;;
52554;SDS011;38455;52.710;6.502;2023-06-14T08:03:31;4.25;;;1.80;;
52554;SDS011;38455;52.710;6.502;2023-06-14T08:05:57;4.63;;;1.60;;
52554;SDS011;38455;52.710;6.502;2023-06-14T08:08:23;7.65;;;1.85;;
52554;SDS011;38455;52.710;6.502;2023-06-14T08:10:48;3.47;;;1.60;;
52554;SDS011;38455;52.710;6.502;2023-06-14T08:13:14;7.57;;;1.70;;
52554;SDS011;38455;52.710;6.502;2023-06-14T08:15:40;6.03;;;2.00;;
52554;SDS011;38455;52.710;6.502;2023-06-14T08:18:05;8.13;;;2.40;;
52554;SDS011;38455;52.710;6.502;2023-06-14T08:20:31;6.00;;;1.70;;
52554;SDS011;38455;52.710;6.502;2023-06-14T08:22:57;5.80;;;1.90;;
52554;SDS011;38455;52.710;6.502;2023-06-14T08:25:23;4.03;;;1.63;;
52554;SDS011;38455;52.710;6.502;2023-06-14T08:27:49;6.20;;;2.05;;
52554;SDS011;38455;52.710;6.502;2023-06-14T08:30:15;3.80;;;1.60;;
52554;SDS011;38455;52.710;6.502;2023-06-14T08:32:42;2.35;;;1.20;;
52554;SDS011;38455;52.710;6.502;2023-06-14T08:35:08;2.13;;;1.30;;
52554;SDS011;38455;52.710;6.502;2023-06-14T08:37:37;4.70;;;1.70;;
52554;SDS011;38455;52.710;6.502;2023-06-14T08:40:04;4.40;;;1.70;;
52554;SDS011;38455;52.710;6.502;2023-06-14T08:42:44;2.05;;;1.30;;
52554;SDS011;38455;52.710;6.502;2023-06-14T08:45:12;2.17;;;1.45;;
52554;SDS011;38455;52.710;6.502;2023-06-14T08:47:37;3.33;;;1.60;;
52554;SDS011;38455;52.710;6.502;2023-06-14T08:50:03;3.33;;;1.42;;
52554;SDS011;38455;52.710;6.502;2023-06-14T08:52:32;4.00;;;1.50;;
52554;SDS011;38455;52.710;6.502;2023-06-14T08:55:05;4.22;;;1.30;;
52554;SDS011;38455;52.710;6.502;2023-06-14T08:57:33;1.80;;;1.08;;
52554;SDS011;38455;52.710;6.502;2023-06-14T09:00:03;6.00;;;1.92;;
52554;SDS011;38455;52.710;6.502;2023-06-14T09:02:40;3.67;;;1.50;;
52554;SDS011;38455;52.710;6.502;2023-06-14T09:05:09;2.08;;;1.20;;
52554;SDS011;38455;52.710;6.502;2023-06-14T09:07:36;3.38;;;1.30;;
52554;SDS011;38455;52.710;6.502;2023-06-14T09:10:10;4.65;;;1.30;;
52554;SDS011;38455;52.710;6.502;2023-06-14T09:12:37;2.97;;;1.40;;
52554;SDS011;38455;52.710;6.502;2023-06-14T09:15:05;4.10;;;1.27;;
52554;SDS011;38455;52.710;6.502;2023-06-14T09:17:33;3.67;;;1.70;;
52554;SDS011;38455;52.710;6.502;2023-06-14T09:20:00;3.83;;;1.23;;
52554;SDS011;38455;52.710;6.502;2023-06-14T09:22:30;3.75;;;1.23;;
52554;SDS011;38455;52.710;6.502;2023-06-14T09:24:56;8.07;;;1.23;;
52554;SDS011;38455;52.710;6.502;2023-06-14T09:27:21;4.85;;;1.10;;
52554;SDS011;38455;52.710;6.502;2023-06-14T09:29:47;5.18;;;1.23;;
52554;SDS011;38455;52.710;6.502;2023-06-14T09:32:12;3.13;;;1.27;;
52554;SDS011;38455;52.710;6.502;2023-06-14T09:34:38;3.13;;;1.00;;
52554;SDS011;38455;52.710;6.502;2023-06-14T09:37:05;15.52;;;1.50;;
52554;SDS011;38455;52.710;6.502;2023-06-14T09:39:31;3.83;;;1.20;;
52554;SDS011;38455;52.710;6.502;2023-06-14T09:41:56;6.72;;;1.42;;
52554;SDS011;38455;52.710;6.502;2023-06-14T09:44:22;6.40;;;1.55;;
52554;SDS011;38455;52.710;6.502;2023-06-14T09:46:53;4.22;;;1.20;;
52554;SDS011;38455;52.710;6.502;2023-06-14T09:49:21;5.60;;;1.25;;
52554;SDS011;38455;52.710;6.502;2023-06-14T09:51:47;3.42;;;1.13;;
52554;SDS011;38455;52.710;6.502;2023-06-14T09:54:16;2.20;;;1.15;;
52554;SDS011;38455;52.710;6.502;2023-06-14T09:56:50;2.03;;;0.80;;
52554;SDS011;38455;52.710;6.502;2023-06-14T09:59:19;4.32;;;1.10;;
52554;SDS011;38455;52.710;6.502;2023-06-14T10:01:46;4.15;;;1.30;;
52554;SDS011;38455;52.710;6.502;2023-06-14T10:04:14;5.60;;;1.02;;
52554;SDS011;38455;52.710;6.502;2023-06-14T10:06:43;5.43;;;1.00;;
52554;SDS011;38455;52.710;6.502;2023-06-14T10:09:11;5.15;;;1.20;;
52554;SDS011;38455;52.710;6.502;2023-06-14T10:11:37;13.55;;;1.20;;
52554;SDS011;38455;52.710;6.502;2023-06-14T10:14:08;7.43;;;1.30;;
52554;SDS011;38455;52.710;6.502;2023-06-14T10:16:45;2.70;;;1.10;;
52554;SDS011;38455;52.710;6.502;2023-06-14T10:19:27;2.85;;;1.25;;
52554;SDS011;38455;52.710;6.502;2023-06-14T10:22:16;4.43;;;1.30;;
52554;SDS011;38455;52.710;6.502;2023-06-14T10:27:15;3.38;;;1.20;;
52554;SDS011;38455;52.710;6.502;2023-06-14T10:32:21;4.88;;;0.90;;
52554;SDS011;38455;52.710;6.502;2023-06-14T10:34:58;1.95;;;0.85;;
52554;SDS011;38455;52.710;6.502;2023-06-14T10:37:27;5.35;;;1.48;;
52554;SDS011;38455;52.710;6.502;2023-06-14T10:39:53;4.53;;;0.95;;
52554;SDS011;38455;52.710;6.502;2023-06-14T10:42:18;2.80;;;1.05;;
52554;SDS011;38455;52.710;6.502;2023-06-14T10:44:51;5.55;;;1.65;;
52554;SDS011;38455;52.710;6.502;2023-06-14T10:47:27;4.95;;;1.23;;
52554;SDS011;38455;52.710;6.502;2023-06-14T10:50:06;3.55;;;1.08;;
52554;SDS011;38455;52.710;6.502;2023-06-14T10:52:42;7.13;;;1.15;;
52554;SDS011;38455;52.710;6.502;2023-06-14T10:55:12;6.82;;;1.30;;
52554;SDS011;38455;52.710;6.502;2023-06-14T10:57:44;6.07;;;1.17;;
52554;SDS011;38455;52.710;6.502;2023-06-14T11:00:13;7.70;;;1.23;;
52554;SDS011;38455;52.710;6.502;2023-06-14T11:02:46;5.75;;;1.25;;
52554;SDS011;38455;52.710;6.502;2023-06-14T11:05:19;7.43;;;1.30;;
52554;SDS011;38455;52.710;6.502;2023-06-14T11:10:38;3.42;;;1.15;;
52554;SDS011;38455;52.710;6.502;2023-06-14T11:13:05;3.85;;;1.10;;
52554;SDS011;38455;52.710;6.502;2023-06-14T11:15:35;2.33;;;1.02;;
52554;SDS011;38455;52.710;6.502;2023-06-14T11:18:02;6.07;;;1.10;;
52554;SDS011;38455;52.710;6.502;2023-06-14T11:20:31;16.13;;;1.40;;
52554;SDS011;38455;52.710;6.502;2023-06-14T11:22:58;4.72;;;1.15;;
52554;SDS011;38455;52.710;6.502;2023-06-14T11:25:24;5.80;;;1.27;;
52554;SDS011;38455;52.710;6.502;2023-06-14T11:27:50;6.68;;;1.40;;
52554;SDS011;38455;52.710;6.502;2023-06-14T11:30:16;2.25;;;1.23;;
52554;SDS011;38455;52.710;6.502;2023-06-14T11:32:42;6.20;;;1.25;;
52554;SDS011;38455;52.710;6.502;2023-06-14T11:35:10;3.90;;;1.40;;
52554;SDS011;38455;52.710;6.502;2023-06-14T11:37:36;2.88;;;1.50;;
52554;SDS011;38455;52.710;6.502;2023-06-14T11:40:03;4.90;;;1.10;;
52554;SDS011;38455;52.710;6.502;2023-06-14T11:42:34;6.28;;;1.45;;
52554;SDS011;38455;52.710;6.502;2023-06-14T11:45:00;7.20;;;1.20;;
52554;SDS011;38455;52.710;6.502;2023-06-14T11:47:31;6.78;;;1.85;;
52554;SDS011;38455;52.710;6.502;2023-06-14T11:49:58;5.20;;;1.35;;
52554;SDS011;38455;52.710;6.502;2023-06-14T11:52:24;3.70;;;1.20;;
52554;SDS011;38455;52.710;6.502;2023-06-14T11:54:50;2.80;;;1.08;;
52554;SDS011;38455;52.710;6.502;2023-06-14T11:57:19;4.53;;;1.35;;
52554;SDS011;38455;52.710;6.502;2023-06-14T11:59:45;5.00;;;1.05;;
52554;SDS011;38455;52.710;6.502;2023-06-14T12:02:15;6.80;;;1.30;;
52554;SDS011;38455;52.710;6.502;2023-06-14T12:04:42;7.03;;;1.15;;
52554;SDS011;38455;52.710;6.502;2023-06-14T12:07:17;4.10;;;1.33;;
52554;SDS011;38455;52.710;6.502;2023-06-14T12:12:22;3.30;;;1.35;;
52554;SDS011;38455;52.710;6.502;2023-06-14T12:14:52;3.15;;;1.05;;
52554;SDS011;38455;52.710;6.502;2023-06-14T12:17:20;2.70;;;1.02;;
52554;SDS011;38455;52.710;6.502;2023-06-14T12:19:45;3.58;;;1.20;;
52554;SDS011;38455;52.710;6.502;2023-06-14T12:22:12;2.60;;;1.10;;
52554;SDS011;38455;52.710;6.502;2023-06-14T12:24:38;4.18;;;1.20;;
52554;SDS011;38455;52.710;6.502;2023-06-14T12:27:04;4.57;;;1.33;;
52554;SDS011;38455;52.710;6.502;2023-06-14T12:29:33;7.07;;;1.20;;
52554;SDS011;38455;52.710;6.502;2023-06-14T12:32:00;4.28;;;1.10;;
52554;SDS011;38455;52.710;6.502;2023-06-14T12:34:26;4.55;;;1.30;;
52554;SDS011;38455;52.710;6.502;2023-06-14T12:36:55;3.63;;;1.00;;
52554;SDS011;38455;52.710;6.502;2023-06-14T12:39:21;4.50;;;1.35;;
52554;SDS011;38455;52.710;6.502;2023-06-14T12:41:47;2.75;;;1.08;;
52554;SDS011;38455;52.710;6.502;2023-06-14T12:44:13;3.00;;;1.00;;
52554;SDS011;38455;52.710;6.502;2023-06-14T12:46:41;7.07;;;1.67;;
52554;SDS011;38455;52.710;6.502;2023-06-14T12:49:08;6.47;;;1.30;;
52554;SDS011;38455;52.710;6.502;2023-06-14T12:51:35;2.25;;;1.00;;
52554;SDS011;38455;52.710;6.502;2023-06-14T12:54:01;2.95;;;1.10;;
52554;SDS011;38455;52.710;6.502;2023-06-14T12:56:27;5.50;;;1.38;;
52554;SDS011;38455;52.710;6.502;2023-06-14T12:58:53;1.55;;;1.10;;
52554;SDS011;38455;52.710;6.502;2023-06-14T13:01:19;1.80;;;0.90;;
52554;SDS011;38455;52.710;6.502;2023-06-14T13:03:46;5.65;;;1.48;;
52554;SDS011;38455;52.710;6.502;2023-06-14T13:06:12;4.53;;;1.38;;
52554;SDS011;38455;52.710;6.502;2023-06-14T13:08:38;3.85;;;1.35;;
52554;SDS011;38455;52.710;6.502;2023-06-14T13:11:03;2.97;;;1.00;;
52554;SDS011;38455;52.710;6.502;2023-06-14T13:13:29;4.60;;;1.40;;
52554;SDS011;38455;52.710;6.502;2023-06-14T13:15:55;1.48;;;1.10;;
52554;SDS011;38455;52.710;6.502;2023-06-14T13:18:20;4.07;;;1.00;;
52554;SDS011;38455;52.710;6.502;2023-06-14T13:20:46;6.32;;;1.30;;
52554;SDS011;38455;52.710;6.502;2023-06-14T13:23:12;7.45;;;1.25;;
52554;SDS011;38455;52.710;6.502;2023-06-14T13:25:39;4.13;;;0.90;;
52554;SDS011;38455;52.710;6.502;2023-06-14T13:28:05;3.10;;;1.15;;
52554;SDS011;38455;52.710;6.502;2023-06-14T13:30:31;3.83;;;1.05;;
52554;SDS011;38455;52.710;6.502;2023-06-14T13:32:57;3.38;;;1.20;;
52554;SDS011;38455;52.710;6.502;2023-06-14T13:35:23;6.60;;;1.70;;
52554;SDS011;38455;52.710;6.502;2023-06-14T13:37:49;3.75;;;1.40;;
52554;SDS011;38455;52.710;6.502;2023-06-14T13:40:15;3.28;;;1.15;;
52554;SDS011;38455;52.710;6.502;2023-06-14T13:42:41;2.80;;;1.40;;
52554;SDS011;38455;52.710;6.502;2023-06-14T13:45:07;1.73;;;1.00;;
52554;SDS011;38455;52.710;6.502;2023-06-14T13:47:33;3.20;;;1.10;;
52554;SDS011;38455;52.710;6.502;2023-06-14T13:49:59;7.68;;;1.27;;
52554;SDS011;38455;52.710;6.502;2023-06-14T13:52:25;4.05;;;1.30;;
52554;SDS011;38455;52.710;6.502;2023-06-14T13:54:51;3.42;;;1.10;;
52554;SDS011;38455;52.710;6.502;2023-06-14T13:57:17;2.65;;;1.10;;
52554;SDS011;38455;52.710;6.502;2023-06-14T13:59:43;2.33;;;1.10;;
52554;SDS011;38455;52.710;6.502;2023-06-14T14:02:10;5.18;;;1.83;;
52554;SDS011;38455;52.710;6.502;2023-06-14T14:04:36;2.90;;;1.05;;
52554;SDS011;38455;52.710;6.502;2023-06-14T14:07:03;3.33;;;1.50;;
52554;SDS011;38455;52.710;6.502;2023-06-14T14:09:29;4.18;;;1.40;;
52554;SDS011;38455;52.710;6.502;2023-06-14T14:11:55;2.72;;;1.30;;
52554;SDS011;38455;52.710;6.502;2023-06-14T14:14:23;3.90;;;1.20;;
52554;SDS011;38455;52.710;6.502;2023-06-14T14:16:49;6.30;;;2.17;;
52554;SDS011;38455;52.710;6.502;2023-06-14T14:19:16;3.63;;;1.25;;
52554;SDS011;38455;52.710;6.502;2023-06-14T14:21:44;1.75;;;1.15;;
52554;SDS011;38455;52.710;6.502;2023-06-14T14:24:10;2.40;;;0.90;;
52554;SDS011;38455;52.710;6.502;2023-06-14T14:26:35;2.42;;;1.08;;
52554;SDS011;38455;52.710;6.502;2023-06-14T14:29:01;1.70;;;1.00;;
52554;SDS011;38455;52.710;6.502;2023-06-14T14:31:27;3.60;;;1.23;;
52554;SDS011;38455;52.710;6.502;2023-06-14T14:33:53;3.75;;;1.20;;
52554;SDS011;38455;52.710;6.502;2023-06-14T14:36:19;6.13;;;1.10;;
52554;SDS011;38455;52.710;6.502;2023-06-14T14:38:45;6.22;;;1.38;;
52554;SDS011;38455;52.710;6.502;2023-06-14T14:41:12;6.35;;;1.10;;
52554;SDS011;38455;52.710;6.502;2023-06-14T14:43:37;5.68;;;1.10;;
52554;SDS011;38455;52.710;6.502;2023-06-14T14:46:03;2.63;;;1.00;;
52554;SDS011;38455;52.710;6.502;2023-06-14T14:48:29;2.15;;;1.00;;
52554;SDS011;38455;52.710;6.502;2023-06-14T14:50:54;4.75;;;1.45;;
52554;SDS011;38455;52.710;6.502;2023-06-14T14:53:20;3.47;;;1.15;;
52554;SDS011;38455;52.710;6.502;2023-06-14T14:55:46;4.68;;;1.30;;
52554;SDS011;38455;52.710;6.502;2023-06-14T14:58:12;3.08;;;1.00;;
52554;SDS011;38455;52.710;6.502;2023-06-14T15:00:38;3.03;;;1.25;;